sensor_id;sensor_type;location;lat;lon;timestamp;temperature;humidity
41324;DHT22;27073;51.128;4.220;2022-11-20T00:01:20;7.50;90.50
41324;DHT22;27073;51.128;4.220;2022-11-20T00:03:47;7.40;89.00
41324;DHT22;27073;51.128;4.220;2022-11-20T00:06:16;7.40;88.40
41324;DHT22;27073;51.128;4.220;2022-11-20T00:08:42;7.50;89.00
41324;DHT22;27073;51.128;4.220;2022-11-20T00:11:27;7.50;89.00
41324;DHT22;27073;51.128;4.220;2022-11-20T00:13:56;7.50;88.80
41324;DHT22;27073;51.128;4.220;2022-11-20T00:16:24;7.60;88.60
41324;DHT22;27073;51.128;4.220;2022-11-20T00:18:50;7.50;89.60
41324;DHT22;27073;51.128;4.220;2022-11-20T00:21:19;7.50;88.50
41324;DHT22;27073;51.128;4.220;2022-11-20T00:23:45;7.50;86.80
41324;DHT22;27073;51.128;4.220;2022-11-20T00:26:13;7.50;87.30
41324;DHT22;27073;51.128;4.220;2022-11-20T00:28:40;7.60;86.70
41324;DHT22;27073;51.128;4.220;2022-11-20T00:31:11;7.60;85.40
41324;DHT22;27073;51.128;4.220;2022-11-20T00:33:37;7.50;83.90
41324;DHT22;27073;51.128;4.220;2022-11-20T00:36:05;7.60;84.30
41324;DHT22;27073;51.128;4.220;2022-11-20T00:38:32;7.60;84.80
41324;DHT22;27073;51.128;4.220;2022-11-20T00:41:00;7.60;83.90
41324;DHT22;27073;51.128;4.220;2022-11-20T00:43:26;7.50;86.00
41324;DHT22;27073;51.128;4.220;2022-11-20T00:46:07;7.50;89.00
41324;DHT22;27073;51.128;4.220;2022-11-20T00:48:32;7.50;89.80
41324;DHT22;27073;51.128;4.220;2022-11-20T00:50:59;7.50;89.00
41324;DHT22;27073;51.128;4.220;2022-11-20T00:53:25;7.50;87.80
41324;DHT22;27073;51.128;4.220;2022-11-20T00:56:05;7.40;88.50
41324;DHT22;27073;51.128;4.220;2022-11-20T00:58:34;7.40;89.70
41324;DHT22;27073;51.128;4.220;2022-11-20T01:03:44;7.40;90.00
41324;DHT22;27073;51.128;4.220;2022-11-20T01:06:12;7.30;89.70
41324;DHT22;27073;51.128;4.220;2022-11-20T01:08:39;7.30;88.80
41324;DHT22;27073;51.128;4.220;2022-11-20T01:11:08;7.30;89.20
41324;DHT22;27073;51.128;4.220;2022-11-20T01:13:34;7.50;88.50
41324;DHT22;27073;51.128;4.220;2022-11-20T01:16:14;7.50;88.80
41324;DHT22;27073;51.128;4.220;2022-11-20T01:18:43;7.60;88.90
41324;DHT22;27073;51.128;4.220;2022-11-20T01:21:11;7.50;87.20
41324;DHT22;27073;51.128;4.220;2022-11-20T01:23:40;7.50;86.70
41324;DHT22;27073;51.128;4.220;2022-11-20T01:26:09;7.40;87.60
41324;DHT22;27073;51.128;4.220;2022-11-20T01:28:35;7.40;89.80
41324;DHT22;27073;51.128;4.220;2022-11-20T01:31:01;7.30;90.60
41324;DHT22;27073;51.128;4.220;2022-11-20T01:33:35;7.30;90.70
41324;DHT22;27073;51.128;4.220;2022-11-20T01:36:05;7.30;90.20
41324;DHT22;27073;51.128;4.220;2022-11-20T01:38:31;7.30;90.40
41324;DHT22;27073;51.128;4.220;2022-11-20T01:40:56;7.40;90.20
41324;DHT22;27073;51.128;4.220;2022-11-20T01:43:23;7.40;89.50
41324;DHT22;27073;51.128;4.220;2022-11-20T01:49:01;7.50;86.10
41324;DHT22;27073;51.128;4.220;2022-11-20T01:51:55;7.40;86.60
41324;DHT22;27073;51.128;4.220;2022-11-20T01:54:25;7.40;87.00
41324;DHT22;27073;51.128;4.220;2022-11-20T01:56:55;7.30;88.50
41324;DHT22;27073;51.128;4.220;2022-11-20T01:59:24;7.30;86.70
41324;DHT22;27073;51.128;4.220;2022-11-20T02:01:51;6.80;90.00
41324;DHT22;27073;51.128;4.220;2022-11-20T02:04:17;7.00;90.40
41324;DHT22;27073;51.128;4.220;2022-11-20T02:09:18;6.00;94.30
41324;DHT22;27073;51.128;4.220;2022-11-20T02:11:44;6.30;94.60
41324;DHT22;27073;51.128;4.220;2022-11-20T02:14:10;5.80;93.90
41324;DHT22;27073;51.128;4.220;2022-11-20T02:16:47;5.70;95.80
41324;DHT22;27073;51.128;4.220;2022-11-20T02:22:08;6.00;95.40
41324;DHT22;27073;51.128;4.220;2022-11-20T02:24:39;5.80;97.10
41324;DHT22;27073;51.128;4.220;2022-11-20T02:27:14;5.80;96.40
41324;DHT22;27073;51.128;4.220;2022-11-20T02:32:30;5.70;98.40
41324;DHT22;27073;51.128;4.220;2022-11-20T02:34:56;6.00;97.70
41324;DHT22;27073;51.128;4.220;2022-11-20T02:37:23;6.20;97.10
41324;DHT22;27073;51.128;4.220;2022-11-20T02:39:53;6.00;96.80
41324;DHT22;27073;51.128;4.220;2022-11-20T02:42:19;6.20;96.80
41324;DHT22;27073;51.128;4.220;2022-11-20T02:44:45;6.30;96.50
41324;DHT22;27073;51.128;4.220;2022-11-20T02:47:10;6.50;96.40
41324;DHT22;27073;51.128;4.220;2022-11-20T02:49:36;6.30;96.40
41324;DHT22;27073;51.128;4.220;2022-11-20T02:52:02;6.40;96.20
41324;DHT22;27073;51.128;4.220;2022-11-20T02:54:28;6.20;95.70
41324;DHT22;27073;51.128;4.220;2022-11-20T02:56:53;5.80;99.10
41324;DHT22;27073;51.128;4.220;2022-11-20T02:59:19;5.70;99.20
41324;DHT22;27073;51.128;4.220;2022-11-20T03:01:45;5.50;99.70
41324;DHT22;27073;51.128;4.220;2022-11-20T03:04:11;5.70;99.90
41324;DHT22;27073;51.128;4.220;2022-11-20T03:06:36;5.60;99.70
41324;DHT22;27073;51.128;4.220;2022-11-20T03:09:02;5.70;99.90
41324;DHT22;27073;51.128;4.220;2022-11-20T03:11:28;5.60;99.90
41324;DHT22;27073;51.128;4.220;2022-11-20T03:13:54;5.40;99.90
41324;DHT22;27073;51.128;4.220;2022-11-20T03:16:21;5.30;99.90
41324;DHT22;27073;51.128;4.220;2022-11-20T03:18:48;5.20;99.90
41324;DHT22;27073;51.128;4.220;2022-11-20T03:21:15;5.30;99.90
41324;DHT22;27073;51.128;4.220;2022-11-20T03:23:41;5.00;99.90
41324;DHT22;27073;51.128;4.220;2022-11-20T03:26:12;5.00;99.90
41324;DHT22;27073;51.128;4.220;2022-11-20T03:28:38;5.10;99.90
41324;DHT22;27073;51.128;4.220;2022-11-20T03:31:09;5.20;99.90
41324;DHT22;27073;51.128;4.220;2022-11-20T03:33:35;5.30;99.90
41324;DHT22;27073;51.128;4.220;2022-11-20T03:36:06;5.20;99.90
41324;DHT22;27073;51.128;4.220;2022-11-20T03:38:33;5.30;99.90
41324;DHT22;27073;51.128;4.220;2022-11-20T03:41:07;5.30;99.90
41324;DHT22;27073;51.128;4.220;2022-11-20T03:43:33;5.30;99.90
41324;DHT22;27073;51.128;4.220;2022-11-20T03:45:59;5.60;99.90
41324;DHT22;27073;51.128;4.220;2022-11-20T03:48:25;5.70;99.90
41324;DHT22;27073;51.128;4.220;2022-11-20T03:50:52;5.50;99.60
41324;DHT22;27073;51.128;4.220;2022-11-20T03:53:19;5.30;99.90
41324;DHT22;27073;51.128;4.220;2022-11-20T03:55:50;5.50;99.90
41324;DHT22;27073;51.128;4.220;2022-11-20T03:58:15;5.40;99.90
41324;DHT22;27073;51.128;4.220;2022-11-20T04:00:41;5.60;99.90
41324;DHT22;27073;51.128;4.220;2022-11-20T04:03:07;5.50;99.90
41324;DHT22;27073;51.128;4.220;2022-11-20T04:05:33;5.80;99.90
41324;DHT22;27073;51.128;4.220;2022-11-20T04:08:00;6.00;99.90
41324;DHT22;27073;51.128;4.220;2022-11-20T04:10:26;6.10;99.70
41324;DHT22;27073;51.128;4.220;2022-11-20T04:12:51;6.40;99.10
41324;DHT22;27073;51.128;4.220;2022-11-20T04:15:17;6.50;98.20
41324;DHT22;27073;51.128;4.220;2022-11-20T04:17:43;6.60;97.80
41324;DHT22;27073;51.128;4.220;2022-11-20T04:20:09;6.60;97.50
41324;DHT22;27073;51.128;4.220;2022-11-20T04:22:35;6.50;97.70
41324;DHT22;27073;51.128;4.220;2022-11-20T04:25:00;6.50;97.80
41324;DHT22;27073;51.128;4.220;2022-11-20T04:27:26;6.60;97.80
41324;DHT22;27073;51.128;4.220;2022-11-20T04:29:52;6.70;97.50
41324;DHT22;27073;51.128;4.220;2022-11-20T04:32:18;6.70;97.20
41324;DHT22;27073;51.128;4.220;2022-11-20T04:34:43;6.70;97.20
41324;DHT22;27073;51.128;4.220;2022-11-20T04:37:09;6.70;97.00
41324;DHT22;27073;51.128;4.220;2022-11-20T04:39:35;6.70;96.90
41324;DHT22;27073;51.128;4.220;2022-11-20T04:42:00;6.70;97.00
41324;DHT22;27073;51.128;4.220;2022-11-20T04:44:45;6.80;97.40
41324;DHT22;27073;51.128;4.220;2022-11-20T04:47:10;6.80;97.70
41324;DHT22;27073;51.128;4.220;2022-11-20T04:49:36;6.80;97.60
41324;DHT22;27073;51.128;4.220;2022-11-20T04:52:02;6.70;97.60
41324;DHT22;27073;51.128;4.220;2022-11-20T04:54:28;6.80;97.70
41324;DHT22;27073;51.128;4.220;2022-11-20T04:56:54;6.70;97.30
41324;DHT22;27073;51.128;4.220;2022-11-20T04:59:19;6.60;98.30
41324;DHT22;27073;51.128;4.220;2022-11-20T05:01:45;6.70;97.70
41324;DHT22;27073;51.128;4.220;2022-11-20T05:04:11;6.40;98.10
41324;DHT22;27073;51.128;4.220;2022-11-20T05:06:36;6.10;99.50
41324;DHT22;27073;51.128;4.220;2022-11-20T05:09:02;5.80;99.90
41324;DHT22;27073;51.128;4.220;2022-11-20T05:11:28;5.80;99.90
41324;DHT22;27073;51.128;4.220;2022-11-20T05:13:54;5.80;99.90
41324;DHT22;27073;51.128;4.220;2022-11-20T05:16:22;6.00;99.90
41324;DHT22;27073;51.128;4.220;2022-11-20T05:18:49;6.40;99.90
41324;DHT22;27073;51.128;4.220;2022-11-20T05:21:16;6.50;99.90
41324;DHT22;27073;51.128;4.220;2022-11-20T05:23:43;6.70;99.90
41324;DHT22;27073;51.128;4.220;2022-11-20T05:26:16;6.70;99.90
41324;DHT22;27073;51.128;4.220;2022-11-20T05:28:43;6.70;99.90
41324;DHT22;27073;51.128;4.220;2022-11-20T05:31:11;6.70;99.90
41324;DHT22;27073;51.128;4.220;2022-11-20T05:33:40;6.60;99.90
41324;DHT22;27073;51.128;4.220;2022-11-20T05:36:06;6.60;99.90
41324;DHT22;27073;51.128;4.220;2022-11-20T05:38:32;6.60;99.90
41324;DHT22;27073;51.128;4.220;2022-11-20T05:41:24;6.70;99.90
41324;DHT22;27073;51.128;4.220;2022-11-20T05:43:50;6.80;99.90
41324;DHT22;27073;51.128;4.220;2022-11-20T05:46:18;6.80;99.90
41324;DHT22;27073;51.128;4.220;2022-11-20T05:48:45;6.80;99.90
41324;DHT22;27073;51.128;4.220;2022-11-20T05:51:14;6.80;99.90
41324;DHT22;27073;51.128;4.220;2022-11-20T05:53:40;6.90;99.90
41324;DHT22;27073;51.128;4.220;2022-11-20T05:56:09;6.80;99.60
41324;DHT22;27073;51.128;4.220;2022-11-20T05:58:38;6.90;99.90
41324;DHT22;27073;51.128;4.220;2022-11-20T06:01:10;6.70;99.10
41324;DHT22;27073;51.128;4.220;2022-11-20T06:03:37;6.60;99.90
41324;DHT22;27073;51.128;4.220;2022-11-20T06:06:04;6.70;99.90
41324;DHT22;27073;51.128;4.220;2022-11-20T06:08:31;6.90;99.80
41324;DHT22;27073;51.128;4.220;2022-11-20T06:10:56;6.90;99.10
41324;DHT22;27073;51.128;4.220;2022-11-20T06:13:23;6.90;99.00
41324;DHT22;27073;51.128;4.220;2022-11-20T06:15:52;7.00;99.00
41324;DHT22;27073;51.128;4.220;2022-11-20T06:18:18;6.90;98.80
41324;DHT22;27073;51.128;4.220;2022-11-20T06:20:45;7.00;99.30
41324;DHT22;27073;51.128;4.220;2022-11-20T06:23:11;7.10;99.00
41324;DHT22;27073;51.128;4.220;2022-11-20T06:25:41;6.90;98.60
41324;DHT22;27073;51.128;4.220;2022-11-20T06:28:08;7.00;99.20
41324;DHT22;27073;51.128;4.220;2022-11-20T06:30:35;6.70;99.20
41324;DHT22;27073;51.128;4.220;2022-11-20T06:33:01;6.60;99.60
41324;DHT22;27073;51.128;4.220;2022-11-20T06:35:26;6.60;99.90
41324;DHT22;27073;51.128;4.220;2022-11-20T06:37:52;6.60;99.90
41324;DHT22;27073;51.128;4.220;2022-11-20T06:40:18;6.60;99.90
41324;DHT22;27073;51.128;4.220;2022-11-20T06:42:44;6.50;99.50
41324;DHT22;27073;51.128;4.220;2022-11-20T06:45:10;6.40;99.90
41324;DHT22;27073;51.128;4.220;2022-11-20T06:47:35;6.30;99.90
41324;DHT22;27073;51.128;4.220;2022-11-20T06:50:01;6.30;99.90
41324;DHT22;27073;51.128;4.220;2022-11-20T06:52:27;6.50;99.90
41324;DHT22;27073;51.128;4.220;2022-11-20T06:54:52;6.20;99.90
41324;DHT22;27073;51.128;4.220;2022-11-20T06:57:18;6.20;99.90
41324;DHT22;27073;51.128;4.220;2022-11-20T06:59:44;5.90;99.90
41324;DHT22;27073;51.128;4.220;2022-11-20T07:02:11;6.20;99.90
41324;DHT22;27073;51.128;4.220;2022-11-20T07:04:38;6.40;99.90
41324;DHT22;27073;51.128;4.220;2022-11-20T07:07:03;6.60;99.90
41324;DHT22;27073;51.128;4.220;2022-11-20T07:09:29;6.80;99.90
41324;DHT22;27073;51.128;4.220;2022-11-20T07:11:55;6.90;99.90
41324;DHT22;27073;51.128;4.220;2022-11-20T07:14:20;7.00;99.90
41324;DHT22;27073;51.128;4.220;2022-11-20T07:16:46;7.10;99.90
41324;DHT22;27073;51.128;4.220;2022-11-20T07:19:12;6.30;99.90
41324;DHT22;27073;51.128;4.220;2022-11-20T07:21:38;6.30;99.90
41324;DHT22;27073;51.128;4.220;2022-11-20T07:24:03;6.50;99.90
41324;DHT22;27073;51.128;4.220;2022-11-20T07:26:29;6.70;99.90
41324;DHT22;27073;51.128;4.220;2022-11-20T07:28:55;6.70;99.90
41324;DHT22;27073;51.128;4.220;2022-11-20T07:31:21;6.90;99.90
41324;DHT22;27073;51.128;4.220;2022-11-20T07:33:47;7.00;99.90
41324;DHT22;27073;51.128;4.220;2022-11-20T07:36:12;7.10;99.90
41324;DHT22;27073;51.128;4.220;2022-11-20T07:38:38;7.20;99.90
41324;DHT22;27073;51.128;4.220;2022-11-20T07:41:04;7.30;99.90
41324;DHT22;27073;51.128;4.220;2022-11-20T07:43:30;7.30;99.90
41324;DHT22;27073;51.128;4.220;2022-11-20T07:45:57;7.40;99.90
41324;DHT22;27073;51.128;4.220;2022-11-20T07:48:24;7.40;99.90
41324;DHT22;27073;51.128;4.220;2022-11-20T07:50:53;7.40;99.90
41324;DHT22;27073;51.128;4.220;2022-11-20T07:53:20;7.40;99.90
41324;DHT22;27073;51.128;4.220;2022-11-20T07:55:47;7.40;99.90
41324;DHT22;27073;51.128;4.220;2022-11-20T07:58:13;7.40;99.90
41324;DHT22;27073;51.128;4.220;2022-11-20T08:00:40;7.40;99.90
41324;DHT22;27073;51.128;4.220;2022-11-20T08:03:06;7.50;99.90
41324;DHT22;27073;51.128;4.220;2022-11-20T08:05:32;7.60;99.90
41324;DHT22;27073;51.128;4.220;2022-11-20T08:07:58;7.60;99.90
41324;DHT22;27073;51.128;4.220;2022-11-20T08:10:24;7.50;99.90
41324;DHT22;27073;51.128;4.220;2022-11-20T08:12:51;7.60;99.90
41324;DHT22;27073;51.128;4.220;2022-11-20T08:15:37;7.60;99.90
41324;DHT22;27073;51.128;4.220;2022-11-20T08:18:06;7.70;99.90
41324;DHT22;27073;51.128;4.220;2022-11-20T08:20:32;7.80;99.90
41324;DHT22;27073;51.128;4.220;2022-11-20T08:23:00;7.80;99.90
41324;DHT22;27073;51.128;4.220;2022-11-20T08:25:27;7.90;99.90
41324;DHT22;27073;51.128;4.220;2022-11-20T08:27:53;7.90;99.90
41324;DHT22;27073;51.128;4.220;2022-11-20T08:30:19;7.90;99.90
41324;DHT22;27073;51.128;4.220;2022-11-20T08:32:44;8.00;99.90
41324;DHT22;27073;51.128;4.220;2022-11-20T08:35:10;8.00;99.90
41324;DHT22;27073;51.128;4.220;2022-11-20T08:37:36;8.00;99.90
41324;DHT22;27073;51.128;4.220;2022-11-20T08:40:04;8.00;99.90
41324;DHT22;27073;51.128;4.220;2022-11-20T08:42:30;8.00;99.90
41324;DHT22;27073;51.128;4.220;2022-11-20T08:44:55;8.00;99.90
41324;DHT22;27073;51.128;4.220;2022-11-20T08:47:21;8.00;99.90
41324;DHT22;27073;51.128;4.220;2022-11-20T08:49:47;8.20;99.90
41324;DHT22;27073;51.128;4.220;2022-11-20T08:52:12;8.20;99.90
41324;DHT22;27073;51.128;4.220;2022-11-20T08:54:38;8.30;99.90
41324;DHT22;27073;51.128;4.220;2022-11-20T08:57:04;8.30;99.90
41324;DHT22;27073;51.128;4.220;2022-11-20T08:59:30;8.30;99.80
41324;DHT22;27073;51.128;4.220;2022-11-20T09:01:56;8.20;99.90
41324;DHT22;27073;51.128;4.220;2022-11-20T09:04:22;8.10;99.90
41324;DHT22;27073;51.128;4.220;2022-11-20T09:06:48;8.20;99.90
41324;DHT22;27073;51.128;4.220;2022-11-20T09:09:17;8.20;99.90
41324;DHT22;27073;51.128;4.220;2022-11-20T09:11:44;8.20;99.90
41324;DHT22;27073;51.128;4.220;2022-11-20T09:14:10;7.80;99.90
41324;DHT22;27073;51.128;4.220;2022-11-20T09:16:36;7.70;99.90
41324;DHT22;27073;51.128;4.220;2022-11-20T09:19:02;7.40;99.90
41324;DHT22;27073;51.128;4.220;2022-11-20T09:21:28;7.50;99.90
41324;DHT22;27073;51.128;4.220;2022-11-20T09:23:54;7.70;99.90
41324;DHT22;27073;51.128;4.220;2022-11-20T09:26:20;7.50;99.90
41324;DHT22;27073;51.128;4.220;2022-11-20T09:28:45;7.40;99.90
41324;DHT22;27073;51.128;4.220;2022-11-20T09:31:23;7.60;99.90
41324;DHT22;27073;51.128;4.220;2022-11-20T09:33:49;7.50;99.90
41324;DHT22;27073;51.128;4.220;2022-11-20T09:36:15;7.50;99.90
41324;DHT22;27073;51.128;4.220;2022-11-20T09:38:42;7.70;99.90
41324;DHT22;27073;51.128;4.220;2022-11-20T09:47:14;8.00;99.90
41324;DHT22;27073;51.128;4.220;2022-11-20T09:52:41;8.00;99.90
41324;DHT22;27073;51.128;4.220;2022-11-20T09:55:12;8.10;99.90
41324;DHT22;27073;51.128;4.220;2022-11-20T09:57:42;8.20;99.90
41324;DHT22;27073;51.128;4.220;2022-11-20T10:00:10;8.30;99.90
41324;DHT22;27073;51.128;4.220;2022-11-20T10:06:02;8.40;99.90
41324;DHT22;27073;51.128;4.220;2022-11-20T10:08:44;8.50;99.90
41324;DHT22;27073;51.128;4.220;2022-11-20T10:11:33;8.60;99.90
41324;DHT22;27073;51.128;4.220;2022-11-20T10:14:37;8.60;99.90
41324;DHT22;27073;51.128;4.220;2022-11-20T10:28:48;9.00;99.90
41324;DHT22;27073;51.128;4.220;2022-11-20T10:31:33;9.00;99.90
41324;DHT22;27073;51.128;4.220;2022-11-20T10:34:05;9.10;99.90
41324;DHT22;27073;51.128;4.220;2022-11-20T10:36:41;9.10;99.90
41324;DHT22;27073;51.128;4.220;2022-11-20T10:39:36;9.10;99.90
41324;DHT22;27073;51.128;4.220;2022-11-20T10:42:10;9.20;99.90
41324;DHT22;27073;51.128;4.220;2022-11-20T10:44:36;9.20;99.90
41324;DHT22;27073;51.128;4.220;2022-11-20T10:47:25;9.30;99.90
41324;DHT22;27073;51.128;4.220;2022-11-20T10:49:55;9.40;99.90
41324;DHT22;27073;51.128;4.220;2022-11-20T10:55:38;9.50;99.90
41324;DHT22;27073;51.128;4.220;2022-11-20T11:00:50;9.20;99.90
41324;DHT22;27073;51.128;4.220;2022-11-20T11:03:29;9.00;99.90
41324;DHT22;27073;51.128;4.220;2022-11-20T11:06:10;9.00;99.90
41324;DHT22;27073;51.128;4.220;2022-11-20T11:08:40;9.30;99.90
41324;DHT22;27073;51.128;4.220;2022-11-20T11:11:27;9.30;99.90
41324;DHT22;27073;51.128;4.220;2022-11-20T11:14:11;9.40;99.90
41324;DHT22;27073;51.128;4.220;2022-11-20T11:16:54;9.50;99.90
41324;DHT22;27073;51.128;4.220;2022-11-20T11:19:20;9.60;99.90
41324;DHT22;27073;51.128;4.220;2022-11-20T11:21:47;9.60;99.90
41324;DHT22;27073;51.128;4.220;2022-11-20T11:24:27;9.70;99.90
41324;DHT22;27073;51.128;4.220;2022-11-20T11:26:59;9.90;99.90
41324;DHT22;27073;51.128;4.220;2022-11-20T11:29:25;9.80;99.90
41324;DHT22;27073;51.128;4.220;2022-11-20T11:32:10;9.80;99.90
41324;DHT22;27073;51.128;4.220;2022-11-20T11:34:36;10.00;99.90
41324;DHT22;27073;51.128;4.220;2022-11-20T11:37:03;10.10;99.90
41324;DHT22;27073;51.128;4.220;2022-11-20T11:39:31;10.10;99.90
41324;DHT22;27073;51.128;4.220;2022-11-20T11:41:59;9.90;99.90
41324;DHT22;27073;51.128;4.220;2022-11-20T11:44:32;9.90;99.90
41324;DHT22;27073;51.128;4.220;2022-11-20T11:47:29;10.00;99.90
41324;DHT22;27073;51.128;4.220;2022-11-20T11:53:07;10.10;99.90
41324;DHT22;27073;51.128;4.220;2022-11-20T12:00:44;9.30;99.90
41324;DHT22;27073;51.128;4.220;2022-11-20T12:03:35;9.10;99.90
41324;DHT22;27073;51.128;4.220;2022-11-20T12:06:08;8.90;99.90
41324;DHT22;27073;51.128;4.220;2022-11-20T12:08:50;8.90;99.90
41324;DHT22;27073;51.128;4.220;2022-11-20T12:11:23;8.90;99.90
41324;DHT22;27073;51.128;4.220;2022-11-20T12:13:53;8.80;99.90
41324;DHT22;27073;51.128;4.220;2022-11-20T12:16:21;8.90;99.90
41324;DHT22;27073;51.128;4.220;2022-11-20T12:18:50;8.70;99.90
41324;DHT22;27073;51.128;4.220;2022-11-20T12:24:09;8.70;99.90
41324;DHT22;27073;51.128;4.220;2022-11-20T12:40:40;8.20;99.90
41324;DHT22;27073;51.128;4.220;2022-11-20T12:43:17;8.20;99.90
41324;DHT22;27073;51.128;4.220;2022-11-20T12:51:43;8.20;99.90
41324;DHT22;27073;51.128;4.220;2022-11-20T12:57:46;8.20;99.90
41324;DHT22;27073;51.128;4.220;2022-11-20T13:00:18;8.40;99.90
41324;DHT22;27073;51.128;4.220;2022-11-20T13:08:25;8.40;99.90
41324;DHT22;27073;51.128;4.220;2022-11-20T13:18:56;8.50;99.90
41324;DHT22;27073;51.128;4.220;2022-11-20T13:21:38;8.50;99.90
41324;DHT22;27073;51.128;4.220;2022-11-20T13:27:00;8.40;99.90
41324;DHT22;27073;51.128;4.220;2022-11-20T13:29:26;8.40;99.90
41324;DHT22;27073;51.128;4.220;2022-11-20T13:32:23;8.20;99.90
41324;DHT22;27073;51.128;4.220;2022-11-20T13:34:54;8.20;99.90
41324;DHT22;27073;51.128;4.220;2022-11-20T13:37:38;8.30;99.90
41324;DHT22;27073;51.128;4.220;2022-11-20T13:40:21;8.30;99.90
41324;DHT22;27073;51.128;4.220;2022-11-20T13:46:03;8.20;99.90
41324;DHT22;27073;51.128;4.220;2022-11-20T13:48:34;8.20;99.90
41324;DHT22;27073;51.128;4.220;2022-11-20T13:56:05;8.20;99.90
41324;DHT22;27073;51.128;4.220;2022-11-20T14:01:30;8.30;99.90
41324;DHT22;27073;51.128;4.220;2022-11-20T14:03:57;8.10;99.90
41324;DHT22;27073;51.128;4.220;2022-11-20T14:06:25;8.10;99.90
41324;DHT22;27073;51.128;4.220;2022-11-20T14:08:52;8.10;99.90
41324;DHT22;27073;51.128;4.220;2022-11-20T14:11:20;8.00;99.90
41324;DHT22;27073;51.128;4.220;2022-11-20T14:16:22;8.20;99.90
41324;DHT22;27073;51.128;4.220;2022-11-20T14:18:48;8.20;99.90
41324;DHT22;27073;51.128;4.220;2022-11-20T14:21:28;8.30;99.90
41324;DHT22;27073;51.128;4.220;2022-11-20T14:24:05;8.30;99.90
41324;DHT22;27073;51.128;4.220;2022-11-20T14:26:32;8.20;99.90
41324;DHT22;27073;51.128;4.220;2022-11-20T14:28:58;8.20;99.90
41324;DHT22;27073;51.128;4.220;2022-11-20T14:31:26;8.30;99.90
41324;DHT22;27073;51.128;4.220;2022-11-20T14:33:54;8.20;99.90
41324;DHT22;27073;51.128;4.220;2022-11-20T14:36:22;8.30;99.90
41324;DHT22;27073;51.128;4.220;2022-11-20T14:38:50;8.20;99.90
41324;DHT22;27073;51.128;4.220;2022-11-20T14:41:21;8.30;99.90
41324;DHT22;27073;51.128;4.220;2022-11-20T14:43:53;8.40;99.90
41324;DHT22;27073;51.128;4.220;2022-11-20T14:46:21;8.40;99.90
41324;DHT22;27073;51.128;4.220;2022-11-20T14:48:51;8.50;99.90
41324;DHT22;27073;51.128;4.220;2022-11-20T14:51:31;8.50;99.90
41324;DHT22;27073;51.128;4.220;2022-11-20T14:54:14;8.50;99.90
41324;DHT22;27073;51.128;4.220;2022-11-20T14:56:41;8.30;99.90
41324;DHT22;27073;51.128;4.220;2022-11-20T14:59:08;8.40;99.90
41324;DHT22;27073;51.128;4.220;2022-11-20T15:01:35;8.50;99.90
41324;DHT22;27073;51.128;4.220;2022-11-20T15:04:06;8.40;99.90
41324;DHT22;27073;51.128;4.220;2022-11-20T15:06:33;8.40;99.90
41324;DHT22;27073;51.128;4.220;2022-11-20T15:08:58;8.40;99.90
41324;DHT22;27073;51.128;4.220;2022-11-20T15:11:30;8.40;99.90
41324;DHT22;27073;51.128;4.220;2022-11-20T15:13:57;8.40;99.90
41324;DHT22;27073;51.128;4.220;2022-11-20T15:16:23;8.50;99.90
41324;DHT22;27073;51.128;4.220;2022-11-20T15:18:50;8.50;99.90
41324;DHT22;27073;51.128;4.220;2022-11-20T15:21:18;8.60;99.90
41324;DHT22;27073;51.128;4.220;2022-11-20T15:23:45;8.50;99.90
41324;DHT22;27073;51.128;4.220;2022-11-20T15:26:12;8.60;99.90
41324;DHT22;27073;51.128;4.220;2022-11-20T15:28:46;8.70;99.90
41324;DHT22;27073;51.128;4.220;2022-11-20T15:31:17;8.70;99.90
41324;DHT22;27073;51.128;4.220;2022-11-20T15:33:43;8.70;99.90
41324;DHT22;27073;51.128;4.220;2022-11-20T15:36:09;8.70;99.90
41324;DHT22;27073;51.128;4.220;2022-11-20T15:38:35;8.80;99.90
41324;DHT22;27073;51.128;4.220;2022-11-20T15:41:01;8.80;99.90
41324;DHT22;27073;51.128;4.220;2022-11-20T15:43:27;8.90;99.90
41324;DHT22;27073;51.128;4.220;2022-11-20T15:45:56;8.90;99.90
41324;DHT22;27073;51.128;4.220;2022-11-20T15:48:29;9.00;99.90
41324;DHT22;27073;51.128;4.220;2022-11-20T15:51:01;8.90;99.90
41324;DHT22;27073;51.128;4.220;2022-11-20T15:53:29;8.90;99.90
41324;DHT22;27073;51.128;4.220;2022-11-20T15:55:54;8.90;99.90
41324;DHT22;27073;51.128;4.220;2022-11-20T15:58:20;8.90;99.90
41324;DHT22;27073;51.128;4.220;2022-11-20T16:00:48;8.90;99.90
41324;DHT22;27073;51.128;4.220;2022-11-20T16:03:15;8.90;99.90
41324;DHT22;27073;51.128;4.220;2022-11-20T16:05:41;9.00;99.90
41324;DHT22;27073;51.128;4.220;2022-11-20T16:08:07;9.10;99.90
41324;DHT22;27073;51.128;4.220;2022-11-20T16:10:33;9.10;99.90
41324;DHT22;27073;51.128;4.220;2022-11-20T16:12:59;9.10;99.90
41324;DHT22;27073;51.128;4.220;2022-11-20T16:15:51;9.10;99.90
41324;DHT22;27073;51.128;4.220;2022-11-20T16:18:19;9.10;99.90
41324;DHT22;27073;51.128;4.220;2022-11-20T16:20:47;9.20;99.90
41324;DHT22;27073;51.128;4.220;2022-11-20T16:23:14;9.20;99.90
41324;DHT22;27073;51.128;4.220;2022-11-20T16:25:41;9.20;99.90
41324;DHT22;27073;51.128;4.220;2022-11-20T16:28:07;9.30;99.90
41324;DHT22;27073;51.128;4.220;2022-11-20T16:30:33;9.20;99.90
41324;DHT22;27073;51.128;4.220;2022-11-20T16:33:00;9.10;99.90
41324;DHT22;27073;51.128;4.220;2022-11-20T16:35:27;9.00;99.90
41324;DHT22;27073;51.128;4.220;2022-11-20T16:37:54;9.10;99.90
41324;DHT22;27073;51.128;4.220;2022-11-20T16:40:20;9.10;99.90
41324;DHT22;27073;51.128;4.220;2022-11-20T16:42:46;9.00;99.90
41324;DHT22;27073;51.128;4.220;2022-11-20T16:45:12;9.10;99.90
41324;DHT22;27073;51.128;4.220;2022-11-20T16:47:38;9.00;99.90
41324;DHT22;27073;51.128;4.220;2022-11-20T16:50:04;9.10;99.90
41324;DHT22;27073;51.128;4.220;2022-11-20T16:52:31;8.90;99.90
41324;DHT22;27073;51.128;4.220;2022-11-20T16:54:57;9.00;99.90
41324;DHT22;27073;51.128;4.220;2022-11-20T16:57:23;8.90;99.90
41324;DHT22;27073;51.128;4.220;2022-11-20T16:59:49;8.90;99.90
41324;DHT22;27073;51.128;4.220;2022-11-20T17:02:15;8.90;99.90
41324;DHT22;27073;51.128;4.220;2022-11-20T17:04:41;8.90;99.90
41324;DHT22;27073;51.128;4.220;2022-11-20T17:07:07;8.90;99.90
41324;DHT22;27073;51.128;4.220;2022-11-20T17:09:33;8.90;99.90
41324;DHT22;27073;51.128;4.220;2022-11-20T17:11:59;9.00;99.90
41324;DHT22;27073;51.128;4.220;2022-11-20T17:14:25;8.90;99.90
41324;DHT22;27073;51.128;4.220;2022-11-20T17:16:50;8.90;99.90
41324;DHT22;27073;51.128;4.220;2022-11-20T17:19:16;8.90;99.90
41324;DHT22;27073;51.128;4.220;2022-11-20T17:21:42;8.90;99.90
41324;DHT22;27073;51.128;4.220;2022-11-20T17:24:10;8.90;99.90
41324;DHT22;27073;51.128;4.220;2022-11-20T17:26:37;8.80;99.90
41324;DHT22;27073;51.128;4.220;2022-11-20T17:29:09;8.80;99.90
41324;DHT22;27073;51.128;4.220;2022-11-20T17:31:35;8.80;99.90
41324;DHT22;27073;51.128;4.220;2022-11-20T17:34:03;8.70;99.90
41324;DHT22;27073;51.128;4.220;2022-11-20T17:36:30;8.70;99.90
41324;DHT22;27073;51.128;4.220;2022-11-20T17:38:56;8.70;99.90
41324;DHT22;27073;51.128;4.220;2022-11-20T17:41:24;8.70;99.90
41324;DHT22;27073;51.128;4.220;2022-11-20T17:43:55;8.70;99.90